RJTJ(METAR)
10/16 19:00
METAR RJTJ 161000Z 28004KT 9999 FEW020 BKN040 BKN060 16/12 Q1024 RMK
1CU020 6SC040 6SC060 A3026=
戻る
トップページへ戻る
IMOC Co,.Ltd.